createdAt,value
2019-05-06T00:02:11.324Z,2.97
2019-05-06T00:04:41.810Z,2.87
2019-05-06T00:07:13.805Z,2.97
2019-05-06T00:09:44.301Z,3.00
2019-05-06T00:12:14.784Z,3.53
2019-05-06T00:14:45.232Z,3.20
2019-05-06T00:17:15.843Z,3.23
2019-05-06T00:19:46.299Z,3.43
2019-05-06T00:22:16.840Z,3.50
2019-05-06T00:24:54.711Z,3.43
2019-05-06T00:27:31.283Z,4.10
2019-05-06T00:30:04.345Z,4.50
2019-05-06T00:32:34.818Z,3.77
2019-05-06T00:35:05.978Z,3.90
2019-05-06T00:37:36.468Z,3.53
2019-05-06T00:40:20.260Z,3.63
2019-05-06T00:43:00.419Z,3.67
2019-05-06T00:45:30.863Z,3.50
2019-05-06T00:48:01.346Z,4.40
2019-05-06T00:50:31.791Z,3.63
2019-05-06T00:53:04.908Z,3.80
2019-05-06T00:55:35.336Z,4.00
2019-05-06T00:58:05.927Z,3.97
2019-05-06T01:00:38.718Z,3.60
2019-05-06T01:03:09.222Z,4.10
2019-05-06T01:05:39.819Z,3.40
2019-05-06T01:08:10.373Z,4.30
2019-05-06T01:10:40.955Z,3.90
2019-05-06T01:13:26.692Z,3.73
2019-05-06T01:15:57.137Z,4.23
2019-05-06T01:18:27.824Z,4.10
2019-05-06T01:21:17.104Z,3.83
2019-05-06T01:23:48.194Z,3.63
2019-05-06T01:26:18.738Z,4.50
2019-05-06T01:28:49.191Z,4.17
2019-05-06T01:31:19.680Z,4.37
2019-05-06T01:33:50.160Z,4.33
2019-05-06T01:36:20.764Z,4.23
2019-05-06T01:39:04.412Z,4.20
2019-05-06T01:41:44.825Z,4.30
2019-05-06T01:44:15.262Z,4.00
2019-05-06T01:46:45.708Z,4.40
2019-05-06T01:49:16.214Z,4.70
2019-05-06T01:51:46.639Z,3.77
2019-05-06T01:54:17.132Z,4.23
2019-05-06T01:56:47.618Z,4.50
2019-05-06T01:59:18.382Z,4.37
2019-05-06T02:01:58.007Z,4.10
2019-05-06T02:04:21.090Z,4.63
2019-05-06T02:06:51.529Z,4.20
2019-05-06T02:09:22.001Z,4.27
2019-05-06T02:11:53.667Z,4.17
2019-05-06T02:14:24.755Z,4.23
2019-05-06T02:16:55.173Z,4.17
2019-05-06T02:19:25.732Z,3.73
2019-05-06T02:22:24.275Z,4.10
2019-05-06T02:25:01.020Z,4.20
2019-05-06T02:27:31.459Z,3.63
2019-05-06T02:30:15.320Z,4.57
2019-05-06T02:33:04.498Z,4.50
2019-05-06T02:35:55.419Z,4.30
2019-05-06T02:38:35.716Z,4.50
2019-05-06T02:41:03.223Z,4.50
2019-05-06T02:43:34.422Z,4.97
2019-05-06T02:46:04.577Z,5.47
2019-05-06T02:48:43.349Z,5.53
2019-05-06T02:51:17.063Z,5.00
2019-05-06T02:53:47.621Z,5.20
2019-05-06T02:56:18.078Z,5.27
2019-05-06T02:58:48.776Z,5.40
2019-05-06T03:01:19.267Z,5.77
2019-05-06T03:03:49.724Z,5.33
2019-05-06T03:06:20.204Z,5.90
2019-05-06T03:08:53.282Z,4.90
2019-05-06T03:11:23.977Z,5.63
2019-05-06T03:13:54.711Z,4.90
2019-05-06T03:16:25.151Z,4.90
2019-05-06T03:18:55.627Z,4.97
2019-05-06T03:21:38.299Z,4.73
2019-05-06T03:24:32.870Z,5.30
2019-05-06T03:27:04.449Z,5.47
2019-05-06T03:29:34.591Z,5.23
2019-05-06T03:32:07.298Z,5.00
2019-05-06T03:34:58.013Z,5.63
2019-05-06T03:37:09.516Z,5.30
2019-05-06T03:39:43.119Z,5.73
2019-05-06T03:42:15.944Z,6.10
2019-05-06T03:44:46.500Z,5.33
2019-05-06T03:47:43.312Z,5.17
2019-05-06T03:50:14.449Z,5.80
2019-05-06T03:52:45.157Z,5.00
2019-05-06T03:55:15.691Z,5.20
2019-05-06T03:57:47.582Z,4.57
2019-05-06T04:00:18.485Z,5.33
2019-05-06T04:02:49.082Z,4.87
2019-05-06T04:05:19.525Z,4.20
2019-05-06T04:07:53.036Z,5.00
2019-05-06T04:10:23.167Z,4.47
2019-05-06T04:12:54.774Z,4.43
2019-05-06T04:15:27.116Z,4.77
2019-05-06T04:18:04.273Z,4.97
2019-05-06T04:20:59.875Z,4.90
2019-05-06T04:23:55.523Z,4.57
2019-05-06T04:26:47.594Z,5.40
2019-05-06T04:29:18.380Z,5.00
2019-05-06T04:31:49.248Z,5.10
2019-05-06T04:34:23.082Z,5.30
2019-05-06T04:36:53.357Z,5.37
2019-05-06T04:39:24.487Z,5.20
2019-05-06T04:41:55.538Z,5.33
2019-05-06T04:44:26.209Z,5.47
2019-05-06T04:46:57.310Z,5.57
2019-05-06T04:49:27.898Z,6.40
2019-05-06T04:51:58.445Z,5.90
2019-05-06T04:54:28.915Z,7.10
2019-05-06T04:56:59.457Z,6.43
2019-05-06T04:59:32.569Z,6.40
2019-05-06T05:02:02.856Z,6.90
2019-05-06T05:04:36.703Z,6.63
2019-05-06T05:07:06.329Z,7.53
2019-05-06T05:09:36.874Z,7.57
2019-05-06T05:12:13.620Z,8.70
2019-05-06T05:15:00.079Z,8.13
2019-05-06T05:17:47.216Z,7.40
2019-05-06T05:20:17.664Z,7.00
2019-05-06T05:22:48.263Z,6.90
2019-05-06T05:25:18.748Z,6.50
2019-05-06T05:27:49.277Z,7.23
2019-05-06T05:30:21.896Z,6.67
2019-05-06T05:32:52.217Z,6.70
2019-05-06T05:35:22.919Z,6.90
2019-05-06T05:37:53.564Z,6.77
2019-05-06T05:40:24.048Z,7.17
2019-05-06T05:43:25.732Z,7.97
2019-05-06T05:45:56.381Z,6.30
2019-05-06T05:48:57.916Z,6.20
2019-05-06T05:51:28.352Z,6.63
2019-05-06T05:53:58.867Z,6.67
2019-05-06T05:56:30.216Z,5.30
2019-05-06T05:59:03.008Z,5.90
2019-05-06T06:01:33.193Z,5.97
2019-05-06T06:04:03.886Z,5.53
2019-05-06T06:06:34.443Z,5.67
2019-05-06T06:09:05.944Z,5.40
2019-05-06T06:11:49.810Z,5.37
2019-05-06T06:14:56.144Z,5.43
2019-05-06T06:17:51.929Z,5.47
2019-05-06T06:20:39.815Z,5.67
2019-05-06T06:23:16.730Z,5.67
2019-05-06T06:25:47.335Z,5.57
2019-05-06T06:28:17.944Z,5.40
2019-05-06T06:31:13.471Z,5.13
2019-05-06T06:33:43.971Z,4.80
2019-05-06T06:36:39.013Z,5.40
2019-05-06T06:39:13.923Z,5.30
2019-05-06T06:41:44.518Z,4.83
2019-05-06T06:44:17.965Z,4.77
2019-05-06T06:46:48.557Z,5.10
2019-05-06T06:49:19.190Z,5.13
2019-05-06T06:51:49.792Z,4.90
2019-05-06T06:54:20.303Z,4.67
2019-05-06T06:57:15.599Z,4.63
2019-05-06T06:59:57.797Z,4.80
2019-05-06T07:02:47.384Z,4.93
2019-05-06T07:05:45.873Z,4.67
2019-05-06T07:08:16.308Z,4.60
2019-05-06T07:10:46.787Z,4.93
2019-05-06T07:13:17.777Z,5.00
2019-05-06T07:15:48.316Z,4.53
2019-05-06T07:18:18.755Z,4.93
2019-05-06T07:21:23.346Z,5.07
2019-05-06T07:23:53.779Z,5.13
2019-05-06T07:26:27.291Z,5.03
2019-05-06T07:28:57.751Z,4.63
2019-05-06T07:31:28.236Z,4.53
2019-05-06T07:33:58.881Z,4.53
2019-05-06T07:36:29.365Z,3.70
2019-05-06T07:39:03.899Z,4.63
2019-05-06T07:41:53.989Z,3.77
2019-05-06T07:44:45.885Z,3.63
2019-05-06T07:47:38.445Z,4.00
2019-05-06T07:50:10.144Z,4.03
2019-05-06T07:52:42.265Z,4.20
2019-05-06T07:55:13.156Z,4.40
2019-05-06T07:57:43.600Z,4.03
2019-05-06T08:00:14.306Z,4.13
2019-05-06T08:02:44.754Z,3.67
2019-05-06T08:05:15.344Z,3.83
2019-05-06T08:07:45.775Z,4.30
2019-05-06T08:10:16.487Z,4.10
2019-05-06T08:12:46.921Z,3.90
2019-05-06T08:15:18.109Z,4.10
2019-05-06T08:17:48.515Z,3.90
2019-05-06T08:20:22.007Z,3.63
2019-05-06T08:23:08.407Z,3.50
2019-05-06T08:25:44.854Z,3.43
2019-05-06T08:28:15.297Z,3.43
2019-05-06T08:30:45.789Z,3.60
2019-05-06T08:33:16.339Z,3.80
2019-05-06T08:35:46.820Z,3.30
2019-05-06T08:38:17.327Z,3.50
2019-05-06T08:40:47.861Z,3.70
2019-05-06T08:43:18.338Z,3.70
2019-05-06T08:45:48.901Z,3.93
2019-05-06T08:48:19.455Z,3.70
2019-05-06T08:51:03.377Z,4.00
2019-05-06T08:54:07.698Z,4.17
2019-05-06T08:56:38.142Z,4.17
2019-05-06T08:59:08.609Z,4.20
2019-05-06T09:01:49.719Z,4.17
2019-05-06T09:04:22.591Z,3.70
2019-05-06T09:06:53.401Z,3.50
2019-05-06T09:09:24.260Z,3.83
2019-05-06T09:11:54.701Z,4.20
2019-05-06T09:14:25.142Z,4.90
2019-05-06T09:16:55.637Z,4.00
2019-05-06T09:19:26.077Z,4.03
2019-05-06T09:21:57.863Z,3.70
2019-05-06T09:24:28.281Z,4.27
2019-05-06T09:27:04.416Z,4.57
2019-05-06T09:29:47.011Z,4.00
2019-05-06T09:32:22.738Z,3.57
2019-05-06T09:34:58.024Z,3.90
2019-05-06T09:37:28.461Z,3.63
2019-05-06T09:39:58.951Z,3.50
2019-05-06T09:42:29.448Z,3.33
2019-05-06T09:45:02.040Z,3.23
2019-05-06T09:47:49.874Z,3.50
2019-05-06T09:50:34.486Z,3.40
2019-05-06T09:53:05.564Z,3.23
2019-05-06T09:55:43.019Z,2.97
2019-05-06T09:58:13.610Z,3.20
2019-05-06T10:00:46.228Z,2.83
2019-05-06T10:03:16.711Z,3.80
2019-05-06T10:05:47.189Z,3.10
2019-05-06T10:08:17.773Z,3.90
2019-05-06T10:10:56.786Z,3.37
2019-05-06T10:13:20.522Z,3.20
2019-05-06T10:15:52.064Z,2.90
2019-05-06T10:18:22.767Z,3.40
2019-05-06T10:20:53.252Z,3.33
2019-05-06T10:23:23.791Z,2.87
2019-05-06T10:25:54.306Z,2.90
2019-05-06T10:28:36.380Z,3.20
2019-05-06T10:31:09.198Z,3.40
2019-05-06T10:33:58.451Z,2.90
2019-05-06T10:36:34.634Z,3.03
2019-05-06T10:39:12.544Z,2.67
2019-05-06T10:41:45.356Z,2.40
2019-05-06T10:44:42.790Z,2.73
2019-05-06T10:47:13.329Z,2.93
2019-05-06T10:49:43.765Z,3.10
2019-05-06T10:52:19.270Z,2.80
2019-05-06T10:54:49.720Z,2.70
2019-05-06T10:57:43.171Z,2.83
2019-05-06T11:00:13.905Z,3.20
2019-05-06T11:03:22.692Z,3.13
2019-05-06T11:05:53.815Z,2.80
2019-05-06T11:08:24.329Z,2.50
2019-05-06T11:10:54.770Z,3.00
2019-05-06T11:13:25.261Z,3.00
2019-05-06T11:15:55.839Z,2.80
2019-05-06T11:18:26.296Z,2.47
2019-05-06T11:20:56.901Z,2.90
2019-05-06T11:23:27.389Z,3.03
2019-05-06T11:25:57.866Z,3.00
2019-05-06T11:28:44.365Z,2.90
2019-05-06T11:31:26.172Z,2.90
2019-05-06T11:34:05.788Z,2.70
2019-05-06T11:36:42.675Z,2.80
2019-05-06T11:39:14.211Z,2.40
2019-05-06T11:42:01.666Z,2.40
2019-05-06T11:44:16.972Z,3.07
2019-05-06T11:46:47.415Z,2.60
2019-05-06T11:49:17.876Z,2.67
2019-05-06T11:51:48.369Z,2.90
2019-05-06T11:54:20.714Z,2.40
2019-05-06T11:56:55.189Z,2.80
2019-05-06T11:59:23.915Z,2.47
2019-05-06T12:01:58.534Z,2.40
2019-05-06T12:04:28.989Z,2.60
2019-05-06T12:07:10.243Z,2.57
2019-05-06T12:09:33.077Z,2.50
2019-05-06T12:12:04.382Z,2.90
2019-05-06T12:14:34.988Z,3.93
2019-05-06T12:17:05.424Z,4.13
2019-05-06T12:19:35.964Z,3.40
2019-05-06T12:22:06.567Z,3.03
2019-05-06T12:24:37.114Z,6.17
2019-05-06T12:27:07.550Z,3.57
2019-05-06T12:29:38.453Z,3.80
2019-05-06T12:32:22.549Z,2.77
2019-05-06T12:34:53.095Z,2.40
2019-05-06T12:37:25.180Z,2.20
2019-05-06T12:39:57.901Z,2.60
2019-05-06T12:42:33.170Z,2.40
2019-05-06T12:45:23.034Z,2.63
2019-05-06T12:48:03.042Z,2.37
2019-05-06T12:50:33.473Z,2.60
2019-05-06T12:53:03.935Z,2.17
2019-05-06T12:55:35.449Z,2.27
2019-05-06T12:58:06.158Z,2.43
2019-05-06T13:00:36.867Z,2.47
2019-05-06T13:03:07.347Z,2.50
2019-05-06T13:05:37.864Z,2.30
2019-05-06T13:08:08.317Z,2.20
2019-05-06T13:10:38.797Z,2.03
2019-05-06T13:13:09.344Z,2.30
2019-05-06T13:15:40.056Z,2.07
2019-05-06T13:18:10.606Z,2.10
2019-05-06T13:20:48.395Z,2.10
2019-05-06T13:23:25.319Z,2.30
2019-05-06T13:25:53.142Z,2.30
2019-05-06T13:28:25.306Z,1.77
2019-05-06T13:30:55.786Z,1.70
2019-05-06T13:33:39.813Z,1.93
2019-05-06T13:36:12.583Z,2.00
2019-05-06T13:38:42.782Z,2.40
2019-05-06T13:41:13.314Z,2.17
2019-05-06T13:43:48.234Z,3.60
2019-05-06T13:46:24.111Z,2.50
2019-05-06T13:49:13.390Z,2.43
2019-05-06T13:52:08.791Z,6.67
2019-05-06T13:54:39.317Z,6.27
2019-05-06T13:57:12.263Z,3.60
2019-05-06T13:59:44.148Z,2.73
2019-05-06T14:02:36.367Z,2.67
2019-05-06T14:05:07.708Z,2.67
2019-05-06T14:07:38.145Z,1.57
2019-05-06T14:10:08.952Z,2.50
2019-05-06T14:12:39.404Z,2.60
2019-05-06T14:15:12.385Z,2.30
2019-05-06T14:17:42.625Z,2.20
2019-05-06T14:20:13.509Z,2.00
2019-05-06T14:22:44.078Z,2.57
2019-05-06T14:25:38.157Z,2.30
2019-05-06T14:28:19.706Z,1.80
2019-05-06T14:30:59.929Z,1.50
2019-05-06T14:33:32.296Z,1.57
2019-05-06T14:36:03.246Z,1.73
2019-05-06T14:38:33.849Z,1.80
2019-05-06T14:41:07.920Z,1.47
2019-05-06T14:43:38.547Z,1.50
2019-05-06T14:46:09.076Z,1.50
2019-05-06T14:48:39.534Z,1.63
2019-05-06T14:51:10.113Z,2.00
2019-05-06T14:53:43.376Z,1.70
2019-05-06T14:56:38.165Z,1.33
2019-05-06T14:59:08.884Z,1.50
2019-05-06T15:01:45.137Z,1.33
2019-05-06T15:04:12.926Z,1.10
2019-05-06T15:06:43.352Z,1.37
2019-05-06T15:09:13.896Z,1.40
2019-05-06T15:11:44.462Z,1.20
2019-05-06T15:14:14.891Z,1.20
2019-05-06T15:16:45.371Z,1.30
2019-05-06T15:19:15.805Z,1.43
2019-05-06T15:21:46.254Z,1.33
2019-05-06T15:24:16.760Z,1.53
2019-05-06T15:26:47.240Z,1.63
2019-05-06T15:29:17.701Z,1.60
2019-05-06T15:31:58.876Z,1.40
2019-05-06T15:34:37.002Z,1.43
2019-05-06T15:37:14.339Z,1.50
2019-05-06T15:39:44.789Z,1.50
2019-05-06T15:42:15.279Z,1.47
2019-05-06T15:44:45.723Z,1.40
2019-05-06T15:47:16.236Z,1.73
2019-05-06T15:49:46.645Z,1.77
2019-05-06T15:52:17.128Z,1.30
2019-05-06T15:54:47.563Z,1.30
2019-05-06T15:57:18.040Z,1.70
2019-05-06T15:59:48.480Z,1.70
2019-05-06T16:02:19.007Z,1.60
2019-05-06T16:04:49.435Z,1.57
2019-05-06T16:07:19.963Z,1.30
2019-05-06T16:09:55.023Z,1.90
2019-05-06T16:12:22.617Z,1.63
2019-05-06T16:14:53.278Z,1.60
2019-05-06T16:17:24.040Z,1.67
2019-05-06T16:19:54.548Z,1.70
2019-05-06T16:22:24.964Z,1.53
2019-05-06T16:25:02.683Z,1.60
2019-05-06T16:27:32.625Z,1.50
2019-05-06T16:30:03.621Z,1.50
2019-05-06T16:32:34.134Z,1.40
2019-05-06T16:35:04.798Z,1.80
2019-05-06T16:37:35.284Z,1.63
2019-05-06T16:40:06.736Z,1.60
2019-05-06T16:42:37.297Z,1.67
2019-05-06T16:45:08.237Z,1.53
2019-05-06T16:47:39.404Z,1.70
2019-05-06T16:50:13.554Z,1.63
2019-05-06T16:52:45.638Z,1.83
2019-05-06T16:55:20.186Z,1.67
2019-05-06T16:58:04.729Z,1.97
2019-05-06T17:00:36.578Z,1.77
2019-05-06T17:03:32.958Z,1.90
2019-05-06T17:06:14.007Z,1.90
2019-05-06T17:08:44.551Z,2.10
2019-05-06T17:11:26.963Z,2.00
2019-05-06T17:13:47.419Z,2.50
2019-05-06T17:16:18.083Z,1.97
2019-05-06T17:18:48.671Z,2.07
2019-05-06T17:21:19.251Z,2.30
2019-05-06T17:23:52.028Z,2.37
2019-05-06T17:26:22.546Z,2.30
2019-05-06T17:29:22.693Z,2.20
2019-05-06T17:32:11.992Z,2.50
2019-05-06T17:34:46.249Z,2.20
2019-05-06T17:37:36.853Z,2.33
2019-05-06T17:40:11.749Z,2.40
2019-05-06T17:42:42.093Z,2.13
2019-05-06T17:45:32.081Z,2.27
2019-05-06T17:48:14.039Z,2.07
2019-05-06T17:50:49.031Z,2.40
2019-05-06T17:53:19.552Z,2.20
2019-05-06T17:55:49.989Z,2.20
2019-05-06T17:58:22.046Z,2.40
2019-05-06T18:00:52.480Z,2.20
2019-05-06T18:03:24.670Z,2.70
2019-05-06T18:05:55.185Z,2.07
2019-05-06T18:08:25.626Z,2.40
2019-05-06T18:10:56.139Z,2.00
2019-05-06T18:13:26.608Z,2.33
2019-05-06T18:15:57.139Z,2.30
2019-05-06T18:18:28.990Z,2.43
2019-05-06T18:20:59.558Z,2.80
2019-05-06T18:23:30.012Z,2.87
2019-05-06T18:26:00.523Z,2.50
2019-05-06T18:28:32.677Z,2.60
2019-05-06T18:31:03.287Z,2.60
2019-05-06T18:33:33.827Z,2.33
2019-05-06T18:36:06.326Z,2.23
2019-05-06T18:38:36.497Z,2.70
2019-05-06T18:41:07.097Z,1.90
2019-05-06T18:43:37.588Z,2.30
2019-05-06T18:46:08.164Z,1.77
2019-05-06T18:48:38.693Z,2.07
2019-05-06T18:51:09.130Z,1.60
2019-05-06T18:53:39.607Z,2.13
2019-05-06T18:56:12.519Z,2.10
2019-05-06T18:58:42.877Z,1.70
2019-05-06T19:01:13.534Z,2.00
2019-05-06T19:04:03.442Z,2.30
2019-05-06T19:06:34.057Z,2.47
2019-05-06T19:09:33.253Z,2.00
2019-05-06T19:12:04.023Z,2.40
2019-05-06T19:14:34.475Z,2.47
2019-05-06T19:17:05.100Z,2.57
2019-05-06T19:19:35.635Z,2.30
2019-05-06T19:22:06.319Z,2.20
2019-05-06T19:24:36.751Z,2.20
2019-05-06T19:27:07.250Z,2.03
2019-05-06T19:29:37.743Z,2.23
2019-05-06T19:32:08.284Z,2.20
2019-05-06T19:34:38.760Z,2.80
2019-05-06T19:37:09.196Z,2.50
2019-05-06T19:39:39.688Z,2.43
2019-05-06T19:42:12.503Z,2.70
2019-05-06T19:44:43.142Z,3.40
2019-05-06T19:47:14.458Z,2.83
2019-05-06T19:49:44.916Z,2.23
2019-05-06T19:52:15.336Z,2.57
2019-05-06T19:54:45.811Z,2.50
2019-05-06T19:57:16.292Z,3.27
2019-05-06T19:59:46.760Z,3.00
2019-05-06T20:02:17.214Z,2.50
2019-05-06T20:04:53.217Z,3.40
2019-05-06T20:07:38.356Z,2.97
2019-05-06T20:10:27.849Z,3.03
2019-05-06T20:13:02.738Z,3.17
2019-05-06T20:15:39.581Z,3.70
2019-05-06T20:18:10.676Z,2.97
2019-05-06T20:20:42.268Z,3.30
2019-05-06T20:23:13.083Z,3.60
2019-05-06T20:25:44.938Z,2.70
2019-05-06T20:28:15.603Z,2.40
2019-05-06T20:30:46.134Z,2.27
2019-05-06T20:33:16.626Z,2.53
2019-05-06T20:35:47.063Z,2.60
2019-05-06T20:38:17.547Z,2.47
2019-05-06T20:40:47.971Z,1.83
2019-05-06T20:43:23.072Z,2.20
2019-05-06T20:45:52.134Z,2.73
2019-05-06T20:48:23.501Z,3.80
2019-05-06T20:50:54.088Z,2.60
2019-05-06T20:53:24.573Z,2.70
2019-05-06T20:55:55.058Z,2.30
2019-05-06T20:58:25.498Z,2.60
2019-05-06T21:00:55.988Z,3.30
2019-05-06T21:03:26.428Z,2.80
2019-05-06T21:05:56.862Z,2.73
2019-05-06T21:08:27.446Z,2.90
2019-05-06T21:10:57.883Z,2.50
2019-05-06T21:13:32.152Z,2.43
2019-05-06T21:16:02.229Z,2.50
2019-05-06T21:18:32.767Z,2.20
2019-05-06T21:21:03.211Z,2.17
2019-05-06T21:23:33.809Z,1.93
2019-05-06T21:26:04.347Z,2.07
2019-05-06T21:28:34.840Z,2.23
2019-05-06T21:31:05.310Z,2.00
2019-05-06T21:33:35.811Z,1.73
2019-05-06T21:36:06.243Z,2.27
2019-05-06T21:38:36.728Z,1.40
2019-05-06T21:41:07.182Z,1.30
2019-05-06T21:43:46.930Z,1.27
2019-05-06T21:46:09.813Z,1.10
2019-05-06T21:48:42.072Z,1.37
2019-05-06T21:51:12.876Z,1.17
2019-05-06T21:53:43.403Z,1.37
2019-05-06T21:56:13.936Z,1.33
2019-05-06T21:58:44.381Z,1.30
2019-05-06T22:01:15.046Z,1.23
2019-05-06T22:03:45.575Z,1.37
2019-05-06T22:06:16.151Z,1.43
2019-05-06T22:08:46.589Z,1.43
2019-05-06T22:11:17.062Z,1.63
2019-05-06T22:14:00.492Z,1.80
2019-05-06T22:16:19.684Z,1.43
2019-05-06T22:18:50.131Z,1.80
2019-05-06T22:21:25.143Z,1.60
2019-05-06T22:24:04.682Z,1.70
2019-05-06T22:26:35.551Z,1.77
2019-05-06T22:29:06.184Z,1.63
2019-05-06T22:31:36.684Z,1.53
2019-05-06T22:34:07.118Z,1.87
2019-05-06T22:36:37.597Z,1.43
2019-05-06T22:39:08.278Z,2.00
2019-05-06T22:41:38.746Z,1.87
2019-05-06T22:44:13.578Z,2.20
2019-05-06T22:46:42.476Z,2.27
2019-05-06T22:49:13.382Z,2.10
2019-05-06T22:51:44.057Z,2.27
2019-05-06T22:54:14.532Z,2.50
2019-05-06T22:56:44.961Z,2.40
2019-05-06T22:59:15.411Z,2.60
2019-05-06T23:02:04.729Z,2.40
2019-05-06T23:04:36.066Z,2.20
2019-05-06T23:07:06.503Z,3.10
2019-05-06T23:09:36.984Z,4.80
2019-05-06T23:12:07.395Z,4.50
2019-05-06T23:14:37.839Z,4.70
2019-05-06T23:17:08.295Z,4.87
2019-05-06T23:19:38.763Z,4.73
2019-05-06T23:22:09.251Z,4.70
2019-05-06T23:24:39.769Z,4.33
2019-05-06T23:27:12.512Z,3.80
2019-05-06T23:29:44.823Z,4.17
2019-05-06T23:32:14.626Z,3.37
2019-05-06T23:34:45.135Z,3.67
2019-05-06T23:37:23.432Z,4.13
2019-05-06T23:40:42.533Z,4.20
2019-05-06T23:43:47.436Z,4.50
2019-05-06T23:46:53.223Z,4.70
2019-05-06T23:49:59.148Z,5.77
2019-05-06T23:53:04.638Z,6.53
2019-05-06T23:56:10.096Z,6.53
2019-05-06T23:58:42.754Z,7.10
